Time;durP1;ratioP1;P1;durP2;ratioP2;P2;SDS_P1;SDS_P2;PMS_P1;PMS_P2;Temp;Humidity;BMP_temperature;BMP_pressure;BME280_temperature;BME280_humidity;BME280_pressure;Samples;Min_cycle;Max_cycle;Signal;HPM_P1;HPM_P2
2021/05/08 00:03:37;;;;;;;2.47;2.28;;;;;;;;;;10579956;28;20539;-86
2021/05/08 00:08:38;;;;;;;4.10;3.70;;;;;;;;;;10579066;28;20503;-85
2021/05/08 00:13:39;;;;;;;3.92;3.20;;;;;;;;;;10579090;28;20065;-86
2021/05/08 00:18:43;;;;;;;3.75;3.35;;;;;;;;;;10578833;28;20035;-86
2021/05/08 00:23:44;;;;;;;4.43;4.03;;;;;;;;;;10579637;28;20059;-85
2021/05/08 00:28:48;;;;;;;4.53;3.60;;;;;;;;;;10579930;28;20409;-86
2021/05/08 00:33:49;;;;;;;4.13;3.72;;;;;;;;;;10579565;28;20084;-86
2021/05/08 00:38:50;;;;;;;3.15;2.85;;;;;;;;;;10579069;28;20047;-86
2021/05/08 00:43:58;;;;;;;4.63;4.03;;;;;;;;;;10581644;28;20519;-85
2021/05/08 00:48:59;;;;;;;4.45;4.05;;;;;;;;;;10579671;28;20481;-86
2021/05/08 00:54:01;;;;;;;3.63;3.33;;;;;;;;;;10579111;28;20035;-87
2021/05/08 00:59:02;;;;;;;3.72;3.42;;;;;;;;;;10595119;28;20032;-86
2021/05/08 01:04:03;;;;;;;4.20;3.80;;;;;;;;;;10576832;28;20119;-85
2021/05/08 01:09:04;;;;;;;3.60;3.30;;;;;;;;;;10576237;28;20096;-87
2021/05/08 01:14:06;;;;;;;3.75;3.45;;;;;;;;;;10578004;28;20151;-85
2021/05/08 01:19:07;;;;;;;4.13;3.70;;;;;;;;;;10578799;28;20031;-86
2021/05/08 01:24:11;;;;;;;4.10;3.70;;;;;;;;;;10582686;28;20032;-87
2021/05/08 01:29:12;;;;;;;4.20;3.80;;;;;;;;;;10576961;28;20095;-85
2021/05/08 01:34:13;;;;;;;3.53;3.22;;;;;;;;;;10576697;28;20035;-86
2021/05/08 01:39:14;;;;;;;3.60;3.30;;;;;;;;;;10575172;28;20094;-86
2021/05/08 01:44:15;;;;;;;3.47;3.17;;;;;;;;;;10575166;28;20042;-85
2021/05/08 01:49:16;;;;;;;5.13;4.60;;;;;;;;;;10576674;28;20085;-87
2021/05/08 01:54:17;;;;;;;3.80;3.50;;;;;;;;;;10575950;28;20035;-87
2021/05/08 01:59:18;;;;;;;4.15;3.75;;;;;;;;;;10589048;28;20456;-86
2021/05/08 02:04:19;;;;;;;4.82;4.38;;;;;;;;;;10571542;28;20044;-86
2021/05/08 02:09:20;;;;;;;4.10;3.70;;;;;;;;;;10579224;28;20096;-88
2021/05/08 02:14:21;;;;;;;3.60;3.30;;;;;;;;;;10585202;28;20063;-86
2021/05/08 02:19:22;;;;;;;4.90;3.95;;;;;;;;;;10580241;28;20046;-86
2021/05/08 02:24:23;;;;;;;4.88;4.47;;;;;;;;;;10577496;28;20070;-88
2021/05/08 02:29:24;;;;;;;4.55;4.15;;;;;;;;;;10596754;28;20495;-86
2021/05/08 02:34:25;;;;;;;4.60;4.20;;;;;;;;;;10581708;28;20032;-86
2021/05/08 02:39:26;;;;;;;4.70;4.30;;;;;;;;;;10577275;28;20038;-86
2021/05/08 02:44:27;;;;;;;5.05;4.57;;;;;;;;;;10577152;28;20401;-87
2021/05/08 02:49:28;;;;;;;4.95;4.40;;;;;;;;;;10578252;28;20119;-85
2021/05/08 02:54:29;;;;;;;4.90;4.40;;;;;;;;;;10582290;28;20061;-85
2021/05/08 02:59:30;;;;;;;5.57;5.07;;;;;;;;;;10582410;28;20028;-86
2021/05/08 03:04:31;;;;;;;4.28;3.88;;;;;;;;;;10583587;28;20039;-85
2021/05/08 03:09:35;;;;;;;3.03;2.78;;;;;;;;;;10598790;28;20036;-86
2021/05/08 03:14:36;;;;;;;4.30;3.90;;;;;;;;;;10576479;28;20060;-86
2021/05/08 03:19:37;;;;;;;4.95;4.55;;;;;;;;;;10577702;28;20027;-85
2021/05/08 03:24:38;;;;;;;5.38;4.88;;;;;;;;;;10581503;28;20032;-85
2021/05/08 03:29:39;;;;;;;5.70;5.20;;;;;;;;;;10583323;28;20105;-86
2021/05/08 03:34:40;;;;;;;5.00;4.60;;;;;;;;;;10582413;28;20035;-86
2021/05/08 03:39:41;;;;;;;5.60;4.78;;;;;;;;;;10581452;28;20051;-86
2021/05/08 03:44:42;;;;;;;5.35;4.57;;;;;;;;;;10576677;28;20042;-87
2021/05/08 03:49:43;;;;;;;5.22;4.47;;;;;;;;;;10575592;28;20075;-87
2021/05/08 03:54:44;;;;;;;5.20;4.78;;;;;;;;;;10575521;28;20028;-87
2021/05/08 03:59:45;;;;;;;6.18;5.57;;;;;;;;;;10574467;28;20398;-88
2021/05/08 04:04:46;;;;;;;6.07;5.43;;;;;;;;;;10580322;28;20047;-88
2021/05/08 04:09:47;;;;;;;4.63;4.22;;;;;;;;;;10580263;28;20039;-87
2021/05/08 09:36:02;;;;;;;2.45;1.58;;;;;;;;;;10541737;28;20040;-87
2021/05/08 09:41:43;;;;;;;3.37;2.00;;;;;;;;;;10543123;28;20053;-87
2021/05/08 10:10:15;;;;;;;2.72;1.80;;;;;;;;;;10404495;28;20045;-87
2021/05/08 10:15:16;;;;;;;3.33;1.48;;;;;;;;;;10451018;22;20075;-86
2021/05/08 10:20:20;;;;;;;4.50;2.35;;;;;;;;;;10435203;28;20083;-87
2021/05/08 10:25:21;;;;;;;2.42;1.70;;;;;;;;;;10452479;28;20086;-86
2021/05/08 10:41:54;;;;;;;4.95;2.28;;;;;;;;;;10494054;28;20064;-86
2021/05/08 10:47:20;;;;;;;4.97;2.85;;;;;;;;;;10473809;28;20036;-86
2021/05/08 10:52:26;;;;;;;2.63;1.67;;;;;;;;;;10473331;28;20037;-87
2021/05/08 10:57:28;;;;;;;2.67;1.73;;;;;;;;;;10463547;28;20045;-87
2021/05/08 11:02:42;;;;;;;2.72;1.45;;;;;;;;;;10476426;28;20371;-86
2021/05/08 11:07:43;;;;;;;3.22;1.52;;;;;;;;;;10476498;28;20096;-86
2021/05/08 11:13:11;;;;;;;5.88;1.75;;;;;;;;;;10457853;28;20450;-85
2021/05/08 11:23:42;;;;;;;3.40;2.83;;;;;;;;;;10472908;28;20029;-85
2021/05/08 11:28:55;;;;;;;2.97;2.42;;;;;;;;;;10455948;28;20046;-85
2021/05/08 11:34:11;;;;;;;3.20;2.30;;;;;;;;;;10454139;28;20128;-85
2021/05/08 11:39:13;;;;;;;2.50;1.70;;;;;;;;;;10455609;28;20082;-85
2021/05/08 11:44:27;;;;;;;2.60;1.70;;;;;;;;;;10479322;28;20029;-86
2021/05/08 11:49:38;;;;;;;3.25;2.05;;;;;;;;;;10463878;28;20055;-86
2021/05/08 11:54:41;;;;;;;4.68;1.80;;;;;;;;;;10445846;28;20041;-85
2021/05/08 11:59:42;;;;;;;3.00;1.50;;;;;;;;;;10447649;28;20129;-87
2021/05/08 12:10:23;;;;;;;2.88;1.48;;;;;;;;;;10476575;28;20451;-88
2021/05/08 12:15:52;;;;;;;1.98;1.42;;;;;;;;;;10459416;28;20498;-88
2021/05/08 12:26:54;;;;;;;4.70;1.50;;;;;;;;;;10480742;28;20033;-88
2021/05/08 12:32:45;;;;;;;1.67;1.40;;;;;;;;;;10435820;28;20038;-88
2021/05/08 12:38:26;;;;;;;2.47;1.70;;;;;;;;;;10441491;28;20037;-86
2021/05/08 12:43:50;;;;;;;2.20;1.90;;;;;;;;;;10456017;28;20061;-86
2021/05/08 12:49:20;;;;;;;3.55;2.00;;;;;;;;;;10460568;28;20033;-87
2021/05/08 12:54:22;;;;;;;3.33;2.70;;;;;;;;;;10451571;28;20041;-87
2021/05/08 12:59:32;;;;;;;3.17;2.30;;;;;;;;;;10457400;28;20033;-89
2021/05/08 13:11:03;;;;;;;2.92;1.98;;;;;;;;;;10426417;28;20431;-91
2021/05/08 13:21:36;;;;;;;3.60;1.90;;;;;;;;;;10484828;28;20043;-87
2021/05/08 14:34:30;;;;;;;2.08;1.70;;;;;;;;;;10467145;28;20113;-89
2021/05/08 14:45:34;;;;;;;3.35;1.70;;;;;;;;;;10484076;28;20052;-88
2021/05/08 14:51:29;;;;;;;2.42;1.50;;;;;;;;;;10485315;28;20029;-86
2021/05/08 14:57:02;;;;;;;3.17;1.60;;;;;;;;;;10398461;28;20136;-88
2021/05/08 15:02:29;;;;;;;4.65;2.92;;;;;;;;;;10323227;28;20066;-88
2021/05/08 15:08:06;;;;;;;3.00;1.90;;;;;;;;;;10237606;29;20043;-88
2021/05/08 15:13:12;;;;;;;4.00;2.10;;;;;;;;;;10235265;29;20047;-88
2021/05/08 15:18:44;;;;;;;2.08;1.73;;;;;;;;;;10196538;29;20553;-87
2021/05/08 15:24:14;;;;;;;3.38;2.20;;;;;;;;;;10325940;28;20051;-88
2021/05/08 15:58:20;;;;;;;3.85;1.50;;;;;;;;;;10110357;29;20020;-86
2021/05/08 16:03:48;;;;;;;1.88;1.17;;;;;;;;;;10118161;29;20144;-87
2021/05/08 16:09:09;;;;;;;2.78;1.42;;;;;;;;;;10175727;29;20090;-86
2021/05/08 16:14:10;;;;;;;2.88;1.50;;;;;;;;;;10325702;28;20056;-85
2021/05/08 16:19:11;;;;;;;2.30;1.50;;;;;;;;;;10469985;28;20079;-84
2021/05/08 16:24:12;;;;;;;1.73;1.30;;;;;;;;;;10472224;28;20081;-83
2021/05/08 16:29:40;;;;;;;1.83;1.27;;;;;;;;;;10474033;28;20033;-85
2021/05/08 16:34:46;;;;;;;3.05;2.47;;;;;;;;;;10494166;28;20036;-85
2021/05/08 16:40:29;;;;;;;4.13;1.75;;;;;;;;;;10495054;28;20039;-86
2021/05/08 16:45:30;;;;;;;3.42;1.60;;;;;;;;;;10480741;28;20063;-86
2021/05/08 16:50:33;;;;;;;2.03;1.50;;;;;;;;;;10476091;28;20048;-84
2021/05/08 16:55:34;;;;;;;2.38;1.60;;;;;;;;;;10492645;28;20029;-86
2021/05/08 17:00:35;;;;;;;2.28;1.38;;;;;;;;;;10470959;28;20037;-88
2021/05/08 17:05:36;;;;;;;2.17;1.30;;;;;;;;;;10486302;28;20076;-88
2021/05/08 17:10:37;;;;;;;2.75;1.63;;;;;;;;;;10468604;28;20495;-88
2021/05/08 17:15:38;;;;;;;1.95;1.50;;;;;;;;;;10470226;28;20041;-87
2021/05/08 17:20:39;;;;;;;2.45;1.45;;;;;;;;;;10487047;28;20040;-88
2021/05/08 17:25:40;;;;;;;2.13;1.38;;;;;;;;;;10472718;28;20044;-86
2021/05/08 17:30:41;;;;;;;3.17;1.60;;;;;;;;;;10486462;28;20093;-88
2021/05/08 17:35:42;;;;;;;3.00;1.40;;;;;;;;;;10471091;28;20399;-86
2021/05/08 17:40:43;;;;;;;2.33;1.70;;;;;;;;;;10466899;28;20053;-88
2021/05/08 17:45:44;;;;;;;2.47;1.42;;;;;;;;;;10474119;28;20036;-85
2021/05/08 17:50:45;;;;;;;2.78;1.80;;;;;;;;;;10480970;28;20020;-85
2021/05/08 17:55:46;;;;;;;3.47;1.90;;;;;;;;;;10478716;28;20033;-88
2021/05/08 18:00:47;;;;;;;2.38;1.60;;;;;;;;;;10467737;28;20033;-87
2021/05/08 18:05:48;;;;;;;2.08;1.30;;;;;;;;;;10466627;28;20036;-88
2021/05/08 18:10:49;;;;;;;2.50;1.38;;;;;;;;;;10467194;28;20354;-87
2021/05/08 18:15:50;;;;;;;2.42;1.60;;;;;;;;;;10467430;28;20041;-86
2021/05/08 18:20:51;;;;;;;2.40;1.50;;;;;;;;;;10488999;28;20047;-86
2021/05/08 18:25:52;;;;;;;3.10;1.50;;;;;;;;;;10490433;28;20033;-87
2021/05/08 18:30:53;;;;;;;3.00;1.67;;;;;;;;;;10473042;28;20132;-85
2021/05/08 18:35:54;;;;;;;2.40;1.80;;;;;;;;;;10458981;28;20041;-85
2021/05/08 18:40:55;;;;;;;3.13;1.67;;;;;;;;;;10453011;28;20525;-83
2021/05/08 18:45:56;;;;;;;2.63;1.80;;;;;;;;;;10451835;28;20044;-84
2021/05/08 18:50:58;;;;;;;3.22;1.80;;;;;;;;;;10451901;28;20451;-83
2021/05/08 18:55:59;;;;;;;2.63;1.50;;;;;;;;;;10458010;28;20037;-83
2021/05/08 19:01:00;;;;;;;1.95;1.50;;;;;;;;;;10459272;28;20033;-83
2021/05/08 19:06:01;;;;;;;2.60;1.83;;;;;;;;;;10458802;28;20406;-84
2021/05/08 19:11:02;;;;;;;4.25;2.03;;;;;;;;;;10457624;28;20403;-85
2021/05/08 19:16:04;;;;;;;4.22;1.80;;;;;;;;;;10456321;28;20048;-85
2021/05/08 19:21:05;;;;;;;4.43;1.90;;;;;;;;;;10457637;28;20036;-85
2021/05/08 19:26:06;;;;;;;2.38;1.92;;;;;;;;;;10462017;28;20041;-86
2021/05/08 19:31:07;;;;;;;2.95;2.20;;;;;;;;;;10457599;28;20473;-84
2021/05/08 19:36:08;;;;;;;3.63;2.08;;;;;;;;;;10457075;28;20039;-85
2021/05/08 19:41:11;;;;;;;2.70;2.00;;;;;;;;;;10457253;28;20064;-86
2021/05/08 19:46:12;;;;;;;2.97;2.05;;;;;;;;;;10457548;28;20478;-85
2021/05/08 19:51:13;;;;;;;4.63;2.42;;;;;;;;;;10457516;28;20067;-85
2021/05/08 19:56:14;;;;;;;3.92;2.55;;;;;;;;;;10457520;28;20068;-85
2021/05/08 20:01:15;;;;;;;3.05;2.00;;;;;;;;;;10457154;28;20435;-85
2021/05/08 20:06:16;;;;;;;3.30;2.10;;;;;;;;;;10459787;28;20033;-87
2021/05/08 20:11:17;;;;;;;3.25;2.08;;;;;;;;;;10481751;28;20059;-86
2021/05/08 20:16:19;;;;;;;3.70;2.10;;;;;;;;;;10479959;28;20045;-87
2021/05/08 20:21:20;;;;;;;3.85;3.45;;;;;;;;;;10479667;28;20044;-86
2021/05/08 20:26:21;;;;;;;2.88;2.10;;;;;;;;;;10495992;28;20097;-87
2021/05/08 20:31:24;;;;;;;3.03;1.92;;;;;;;;;;10478173;28;20063;-86
2021/05/08 20:36:25;;;;;;;2.30;1.77;;;;;;;;;;10495330;28;20037;-87
2021/05/08 20:41:26;;;;;;;2.85;1.55;;;;;;;;;;10496101;28;20037;-87
2021/05/08 20:46:28;;;;;;;2.45;1.70;;;;;;;;;;10477458;28;20081;-87
2021/05/08 20:51:29;;;;;;;3.58;2.10;;;;;;;;;;10494306;28;20107;-86
2021/05/08 20:56:31;;;;;;;2.70;2.05;;;;;;;;;;10477566;28;20037;-86
2021/05/08 21:01:32;;;;;;;2.20;1.88;;;;;;;;;;10476908;28;20033;-87
2021/05/08 21:06:33;;;;;;;3.63;2.00;;;;;;;;;;10455998;28;20558;-84
2021/05/08 21:11:35;;;;;;;2.35;1.88;;;;;;;;;;10450572;28;20068;-84
2021/05/08 21:16:36;;;;;;;3.50;2.20;;;;;;;;;;10449612;28;20064;-82
2021/05/08 21:21:38;;;;;;;1.63;1.52;;;;;;;;;;10451207;28;20029;-84
2021/05/08 21:26:39;;;;;;;2.83;2.03;;;;;;;;;;10450448;28;20091;-83
2021/05/08 21:31:40;;;;;;;2.70;1.98;;;;;;;;;;10449710;28;20467;-84
2021/05/08 21:36:41;;;;;;;2.50;1.80;;;;;;;;;;10449946;28;20064;-83
2021/05/08 21:41:42;;;;;;;3.33;1.70;;;;;;;;;;10450681;28;20049;-84
2021/05/08 21:46:43;;;;;;;2.13;1.40;;;;;;;;;;10448415;28;20033;-84
2021/05/08 21:51:44;;;;;;;4.22;1.88;;;;;;;;;;10448207;28;20096;-83
2021/05/08 21:56:45;;;;;;;2.08;1.88;;;;;;;;;;10449586;28;20068;-83
2021/05/08 22:01:46;;;;;;;3.72;2.75;;;;;;;;;;10448913;28;20090;-84
2021/05/08 22:06:47;;;;;;;3.05;2.22;;;;;;;;;;10449391;28;20029;-84
2021/05/08 22:11:49;;;;;;;2.90;2.10;;;;;;;;;;10450840;28;20049;-84
2021/05/08 22:16:50;;;;;;;2.90;2.10;;;;;;;;;;10451065;28;20043;-85
2021/05/08 22:21:51;;;;;;;2.35;1.73;;;;;;;;;;10452066;28;20037;-86
2021/05/08 22:26:53;;;;;;;3.50;2.20;;;;;;;;;;10476813;28;20083;-86
2021/05/08 22:31:56;;;;;;;2.10;1.83;;;;;;;;;;10477217;28;20059;-85
2021/05/08 22:42:35;;;;;;;2.60;1.92;;;;;;;;;;10494266;28;20395;-85
2021/05/08 22:47:36;;;;;;;2.28;1.70;;;;;;;;;;10475764;28;20503;-85
2021/05/08 22:52:38;;;;;;;2.90;2.05;;;;;;;;;;10494333;28;20036;-84
2021/05/08 22:57:40;;;;;;;1.92;1.73;;;;;;;;;;10475682;28;20044;-84
2021/05/08 23:02:41;;;;;;;2.60;1.90;;;;;;;;;;10467465;28;20063;-85
2021/05/08 23:07:42;;;;;;;2.63;1.50;;;;;;;;;;10474579;28;20033;-85
2021/05/08 23:12:43;;;;;;;2.47;1.80;;;;;;;;;;10473833;28;20480;-85
2021/05/08 23:17:44;;;;;;;2.95;1.83;;;;;;;;;;10483265;28;20040;-87
2021/05/08 23:22:45;;;;;;;2.85;1.85;;;;;;;;;;10501621;28;20060;-86
2021/05/08 23:27:46;;;;;;;1.90;1.40;;;;;;;;;;10501200;28;20115;-87
2021/05/08 23:32:47;;;;;;;2.72;1.60;;;;;;;;;;10500890;28;20100;-87
2021/05/08 23:37:48;;;;;;;3.10;2.10;;;;;;;;;;10483065;28;20025;-87
2021/05/08 23:42:49;;;;;;;2.08;1.77;;;;;;;;;;10484811;28;20029;-88
2021/05/08 23:47:50;;;;;;;2.72;1.92;;;;;;;;;;10489453;28;20048;-87
2021/05/08 23:52:53;;;;;;;3.08;1.80;;;;;;;;;;10483051;28;20047;-87
2021/05/08 23:57:54;;;;;;;1.90;1.50;;;;;;;;;;10484058;28;20029;-87
